This demonstration page uses our WeatherBlox Daily Observations layout. Learn more.

38.88101, -77.10428

Hourly Observations for August 8, 2016

Temp ( °F °C ) Dew Point ( °F °C ) Humidity (%) Winds ( mph kmh ) Pressure ( in mb ) Visibility ( mi km ) Precip ( " mm )
12:52 am 00:52 Mostly Cloudy 76 24.4 63 17.2 64 64 SW 3 6 29.97 1015 10 16.09344 0 0
1:52 am 01:52 Mostly Cloudy 74 23.3 63 17.2 69 69 SW 3 6 30 1016 10 16.09344 0 0
2:52 am 02:52 Mostly Cloudy 74 23.3 63 17.2 69 69 SSW 3 6 30 1016 10 16.09344 0 0
3:52 am 03:52 Partly Cloudy 75 23.9 61 16.1 62 62 W 3 6 30 1016 10 16.09344 0 0
4:52 am 04:52 Mostly Cloudy 73 22.8 62 16.7 69 69 W 3 6 30 1016 10 16.09344 0 0
5:52 am 05:52 Mostly Cloudy 74 23.3 61 16.1 64 64 Calm 30 1016 10 16.09344 0 0
6:52 am 06:52 Mostly Cloudy 73 22.8 62 16.7 69 69 Calm 30.03 1017 10 16.09344 0 0
7:52 am 07:52 Mostly Cloudy 77 25 63 17.2 62 62 N 5 7 30.03 1017 10 16.09344 0 0
8:52 am 08:52 Mostly Cloudy 80 26.7 62 16.7 54 54 N 5 7 30.03 1017 10 16.09344 0 0
9:52 am 09:52 Mostly Cloudy 83 28.3 62 16.7 49 49 ENE 5 7 30.06 1018 10 16.09344 0 0
10:52 am 10:52 Partly Cloudy 85 29.4 62 16.7 46 46 E 3 6 30.06 1018 10 16.09344 0 0
11:52 am 11:52 Mostly Cloudy 88 31.1 61 16.1 40 40 S 8 13 30.06 1018 10 16.09344 0 0
12:52 pm 12:52 Mostly Cloudy 89 31.7 56 13.3 33 33 S 9 15 30.03 1017 10 16.09344 0 0
1:52 pm 13:52 Cloudy 90 32.2 57 13.9 33 33 S 8 13 30.03 1017 10 16.09344 0 0
2:52 pm 14:52 Cloudy 83 28.3 68 20 61 61 SSW 18 30 30.06 1018 10 16.09344 0 0
3:52 pm 15:52 Cloudy 80 26.7 66 18.9 62 62 SW 13 20 30.06 1018 10 16.09344 0 0
4:52 pm 16:52 Cloudy 79 26.1 66 18.9 65 65 S 9 15 30.06 1018 10 16.09344 0 0
5:52 pm 17:52 Mostly Cloudy 79 26.1 66 18.9 65 65 SW 12 19 30.06 1018 10 16.09344 0 0
6:52 pm 18:52 Mostly Cloudy 78 25.6 64 17.8 62 62 SW 12 19 30.06 1018 10 16.09344 0 0
7:52 pm 19:52 Mostly Cloudy 76 24.4 62 16.7 62 62 SW 9 15 30.09 1019 10 16.09344 0 0
8:52 pm 20:52 Partly Cloudy 75 23.9 64 17.8 69 69 SW 8 13 30.09 1019 10 16.09344 0 0
9:52 pm 21:52 Partly Cloudy 73 22.8 62 16.7 69 69 SSW 6 9 30.12 1020 10 16.09344 0 0
10:52 pm 22:52 Mostly Cloudy 73 22.8 62 16.7 69 69 SW 3 6 30.12 1020 10 16.09344 0 0
11:52 pm 23:52 Mostly Cloudy 73 22.8 62 16.7 69 69 SW 3 6 30.15 1021 10 16.09344 0 0

Powered by AerisWeather